sensor_id;sensor_type;location;lat;lon;timestamp;P1;durP1;ratioP1;P2;durP2;ratioP2
50649;SDS011;36621;60.058;30.346;2022-12-10T05:03:33;18.58;;;11.77;;
50649;SDS011;36621;60.058;30.346;2022-12-10T05:29:56;23.23;;;14.90;;
50649;SDS011;36621;60.058;30.346;2022-12-10T05:37:48;24.00;;;14.50;;
50649;SDS011;36621;60.058;30.346;2022-12-10T05:54:49;28.05;;;16.95;;
50649;SDS011;36621;60.058;30.346;2022-12-10T06:02:21;24.52;;;15.52;;
50649;SDS011;36621;60.058;30.346;2022-12-10T06:09:54;16.02;;;11.18;;
50649;SDS011;36621;60.058;30.346;2022-12-10T06:17:36;16.67;;;10.65;;
50649;SDS011;36621;60.058;30.346;2022-12-10T06:25:09;19.02;;;11.30;;
50649;SDS011;36621;60.058;30.346;2022-12-10T06:32:41;18.00;;;10.95;;
50649;SDS011;36621;60.058;30.346;2022-12-10T06:40:15;20.90;;;12.63;;
50649;SDS011;36621;60.058;30.346;2022-12-10T06:47:48;26.13;;;15.02;;
50649;SDS011;36621;60.058;30.346;2022-12-10T06:55:21;26.02;;;13.85;;
50649;SDS011;36621;60.058;30.346;2022-12-10T07:02:53;23.13;;;14.23;;
50649;SDS011;36621;60.058;30.346;2022-12-10T07:10:26;30.02;;;16.45;;
50649;SDS011;36621;60.058;30.346;2022-12-10T07:17:59;30.83;;;16.65;;
50649;SDS011;36621;60.058;30.346;2022-12-10T07:25:32;31.80;;;17.88;;
50649;SDS011;36621;60.058;30.346;2022-12-10T07:33:05;34.88;;;19.90;;
50649;SDS011;36621;60.058;30.346;2022-12-10T07:40:38;42.97;;;21.08;;
50649;SDS011;36621;60.058;30.346;2022-12-10T07:48:10;45.22;;;23.15;;
50649;SDS011;36621;60.058;30.346;2022-12-10T07:55:46;41.17;;;21.33;;
50649;SDS011;36621;60.058;30.346;2022-12-10T08:03:18;36.47;;;20.23;;
50649;SDS011;36621;60.058;30.346;2022-12-10T08:10:51;29.60;;;16.85;;
50649;SDS011;36621;60.058;30.346;2022-12-10T08:18:25;31.23;;;16.75;;
50649;SDS011;36621;60.058;30.346;2022-12-10T08:25:58;29.17;;;17.35;;
50649;SDS011;36621;60.058;30.346;2022-12-10T08:33:34;29.98;;;16.95;;
50649;SDS011;36621;60.058;30.346;2022-12-10T08:41:10;30.52;;;16.60;;
50649;SDS011;36621;60.058;30.346;2022-12-10T08:48:43;28.27;;;17.58;;
50649;SDS011;36621;60.058;30.346;2022-12-10T08:56:16;27.42;;;16.40;;
50649;SDS011;36621;60.058;30.346;2022-12-10T09:03:49;34.53;;;19.05;;
50649;SDS011;36621;60.058;30.346;2022-12-10T09:11:23;31.92;;;19.02;;
50649;SDS011;36621;60.058;30.346;2022-12-10T09:19:05;34.38;;;20.27;;
50649;SDS011;36621;60.058;30.346;2022-12-10T09:26:40;30.75;;;18.55;;
50649;SDS011;36621;60.058;30.346;2022-12-10T09:34:28;33.92;;;19.33;;
50649;SDS011;36621;60.058;30.346;2022-12-10T09:42:18;32.40;;;20.40;;
50649;SDS011;36621;60.058;30.346;2022-12-10T09:50:09;35.13;;;21.95;;
50649;SDS011;36621;60.058;30.346;2022-12-10T09:58:03;30.92;;;19.58;;
50649;SDS011;36621;60.058;30.346;2022-12-10T10:05:55;36.88;;;20.92;;
50649;SDS011;36621;60.058;30.346;2022-12-10T10:31:17;34.83;;;21.23;;
50649;SDS011;36621;60.058;30.346;2022-12-10T10:39:07;36.03;;;21.02;;
50649;SDS011;36621;60.058;30.346;2022-12-10T10:46:48;32.80;;;19.75;;
50649;SDS011;36621;60.058;30.346;2022-12-10T10:54:31;28.23;;;17.58;;
50649;SDS011;36621;60.058;30.346;2022-12-10T11:02:20;24.08;;;15.50;;
50649;SDS011;36621;60.058;30.346;2022-12-10T12:39:18;24.02;;;13.57;;
50649;SDS011;36621;60.058;30.346;2022-12-10T14:21:34;16.35;;;10.85;;
50649;SDS011;36621;60.058;30.346;2022-12-10T14:29:21;17.35;;;11.35;;
50649;SDS011;36621;60.058;30.346;2022-12-10T14:37:04;15.68;;;10.68;;
50649;SDS011;36621;60.058;30.346;2022-12-10T14:44:56;15.32;;;10.55;;
50649;SDS011;36621;60.058;30.346;2022-12-10T14:52:51;16.58;;;11.77;;
50649;SDS011;36621;60.058;30.346;2022-12-10T15:00:35;13.43;;;9.20;;
50649;SDS011;36621;60.058;30.346;2022-12-10T15:09:37;14.25;;;10.02;;
50649;SDS011;36621;60.058;30.346;2022-12-10T16:40:37;11.18;;;7.93;;
50649;SDS011;36621;60.058;30.346;2022-12-10T17:43:12;12.52;;;8.60;;
50649;SDS011;36621;60.058;30.346;2022-12-10T17:50:58;12.57;;;8.60;;
50649;SDS011;36621;60.058;30.346;2022-12-10T18:16:26;14.93;;;10.05;;
50649;SDS011;36621;60.058;30.346;2022-12-10T18:40:59;15.00;;;10.82;;
50649;SDS011;36621;60.058;30.346;2022-12-10T18:48:32;16.98;;;11.57;;
50649;SDS011;36621;60.058;30.346;2022-12-10T18:56:14;15.73;;;10.82;;
50649;SDS011;36621;60.058;30.346;2022-12-10T19:03:49;15.25;;;11.10;;
50649;SDS011;36621;60.058;30.346;2022-12-10T19:11:26;14.43;;;10.82;;
50649;SDS011;36621;60.058;30.346;2022-12-10T19:19:01;15.85;;;11.38;;
50649;SDS011;36621;60.058;30.346;2022-12-10T19:26:38;22.42;;;14.52;;
